Time;durP1;ratioP1;P1;durP2;ratioP2;P2;SDS_P1;SDS_P2;PMS_P1;PMS_P2;Temp;Humidity;BMP_temperature;BMP_pressure;BME280_temperature;BME280_humidity;BME280_pressure;Samples;Min_cycle;Max_cycle;Signal;HPM_P1;HPM_P2
2023/03/18 00:02:17;;;;;;;3.13;1.83;;;;;;;11.31;74.21;100851.75;5037961;27;96703;-32
2023/03/18 00:04:43;;;;;;;3.53;2.25;;;;;;;11.31;74.36;100851.75;5038337;28;96843;-32
2023/03/18 00:07:09;;;;;;;6.55;2.10;;;;;;;11.28;74.69;100847.41;5037675;28;97974;-32
2023/03/18 00:09:35;;;;;;;4.40;2.42;;;;;;;11.30;74.82;100850.00;5035828;28;100863;-31
2023/03/18 00:12:01;;;;;;;3.80;2.00;;;;;;;11.27;74.22;100845.66;5037413;28;96667;-32
2023/03/18 00:14:26;;;;;;;2.28;1.90;;;;;;;11.24;74.55;100852.16;5037766;27;96723;-32
2023/03/18 00:16:52;;;;;;;4.13;2.22;;;;;;;11.21;74.63;100838.78;5037320;27;97961;-32
2023/03/18 00:19:18;;;;;;;4.95;2.25;;;;;;;11.23;74.28;100849.56;5037429;28;97882;-32
2023/03/18 00:21:44;;;;;;;4.03;2.40;;;;;;;11.20;75.72;100847.03;5036384;28;96702;-32
2023/03/18 00:24:11;;;;;;;3.03;2.35;;;;;;;11.18;74.93;100848.97;5037782;27;96783;-31
2023/03/18 00:26:37;;;;;;;6.57;2.42;;;;;;;11.12;75.70;100855.66;5034680;28;100899;-32
2023/03/18 00:29:03;;;;;;;3.58;2.22;;;;;;;11.11;75.83;100844.91;5035762;28;100831;-32
2023/03/18 00:31:29;;;;;;;3.58;2.15;;;;;;;11.15;75.14;100849.16;5037722;28;96658;-32
2023/03/18 00:33:55;;;;;;;4.88;2.33;;;;;;;11.14;75.24;100839.28;5036163;28;96844;-32
2023/03/18 00:36:25;;;;;;;5.28;2.65;;;;;;;11.14;74.99;100834.75;5035218;28;101003;-31
2023/03/18 00:38:56;;;;;;;4.35;1.70;;;;;;;11.12;74.63;100839.38;5035441;28;102039;-31
2023/03/18 00:41:28;;;;;;;3.63;1.83;;;;;;;11.09;75.05;100838.72;5037498;27;96728;-32
2023/03/18 00:43:54;;;;;;;5.75;2.58;;;;;;;11.10;75.29;100844.03;5036082;28;96748;-32
2023/03/18 00:46:31;;;;;;;3.67;2.33;;;;;;;11.09;75.16;100831.47;5035549;28;100848;-31
2023/03/18 00:49:01;;;;;;;2.60;1.92;;;;;;;11.07;75.28;100843.38;5035263;28;101032;-32
2023/03/18 00:51:30;;;;;;;3.67;2.35;;;;;;;11.04;75.29;100842.59;5036033;28;96642;-32
2023/03/18 00:53:58;;;;;;;3.85;2.58;;;;;;;11.01;75.14;100840.09;5037532;27;96852;-32
2023/03/18 00:56:25;;;;;;;3.53;2.00;;;;;;;11.01;75.86;100850.03;5035423;28;100561;-31
2023/03/18 00:58:52;;;;;;;3.80;2.40;;;;;;;10.98;75.89;100842.97;5035252;28;101191;-31
2023/03/18 01:01:19;;;;;;;3.42;2.28;;;;;;;10.95;75.46;100836.88;5036592;28;96538;-32
2023/03/18 01:03:46;;;;;;;3.42;2.25;;;;;;;10.91;75.78;100840.75;5035831;28;96913;-32
2023/03/18 01:06:14;;;;;;;5.55;2.55;;;;;;;10.91;75.77;100848.88;5035086;28;100775;-32
2023/03/18 01:08:41;;;;;;;5.22;2.28;;;;;;;10.88;76.16;100847.25;5035144;28;100469;-32
2023/03/18 01:11:07;;;;;;;2.50;1.75;;;;;;;10.89;75.76;100848.09;5035705;28;96759;-32
2023/03/18 01:13:33;;;;;;;4.68;2.58;;;;;;;10.83;76.01;100852.09;5035779;28;96842;-32
2023/03/18 01:15:59;;;;;;;3.33;2.13;;;;;;;10.82;75.90;100847.59;5035204;28;101341;-32
2023/03/18 01:18:24;;;;;;;3.95;2.47;;;;;;;10.82;75.80;100847.59;5037045;27;97722;-32
2023/03/18 01:20:50;;;;;;;3.25;2.40;;;;;;;10.80;76.05;100850.44;5037057;27;96771;-32
2023/03/18 01:23:16;;;;;;;4.50;2.55;;;;;;;10.79;76.02;100850.53;5035186;28;96781;-32
2023/03/18 01:25:43;;;;;;;3.97;2.58;;;;;;;10.79;75.97;100847.81;5035924;27;97320;-32
2023/03/18 01:28:09;;;;;;;4.70;2.05;;;;;;;10.77;76.21;100857.88;5034709;28;101399;-31
2023/03/18 01:30:35;;;;;;;3.95;1.95;;;;;;;10.77;76.42;100853.34;5035406;28;96769;-31
2023/03/18 01:33:03;;;;;;;5.30;2.40;;;;;;;10.78;76.17;100859.63;5036622;28;96833;-31
2023/03/18 01:35:31;;;;;;;5.13;2.60;;;;;;;10.75;76.72;100854.38;5034834;27;101101;-32
2023/03/18 01:37:56;;;;;;;3.85;2.42;;;;;;;10.75;76.81;100849.84;5034732;28;101636;-32
2023/03/18 01:40:22;;;;;;;3.85;2.53;;;;;;;10.79;76.22;100847.81;5035311;28;96663;-32
2023/03/18 01:42:55;;;;;;;5.40;2.67;;;;;;;10.78;76.31;100838.81;5035600;28;96708;-32
2023/03/18 01:45:25;;;;;;;4.45;2.28;;;;;;;10.80;76.11;100839.59;5036208;28;99400;-31
2023/03/18 01:47:50;;;;;;;4.50;2.40;;;;;;;10.78;77.15;100846.09;5034768;28;100852;-31
2023/03/18 01:50:22;;;;;;;5.03;2.90;;;;;;;10.80;76.10;100833.31;5035970;27;96642;-32
2023/03/18 01:52:51;;;;;;;;;;;;;;;10.83;76.39;100847.53;5038703;28;97018;-32
2023/03/18 01:55:19;;;;;;;4.70;2.63;;;;;;;10.81;76.40;100849.44;5038132;28;99009;-32
2023/03/18 01:57:47;;;;;;;5.55;2.75;;;;;;;10.82;76.24;100844.91;5038075;28;101597;-31
2023/03/18 02:00:15;;;;;;;6.88;2.78;;;;;;;10.82;76.35;100851.22;5038420;28;96564;-31
2023/03/18 02:02:42;;;;;;;3.90;2.40;;;;;;;10.81;77.00;100854.88;5038343;28;96856;-32
2023/03/18 02:05:11;;;;;;;4.20;2.63;;;;;;;10.78;77.88;100856.91;5037985;28;101033;-31
2023/03/18 02:07:41;;;;;;;4.53;2.63;;;;;;;10.79;77.30;100856.81;5039470;27;97921;-32
2023/03/18 02:10:12;;;;;;;5.50;2.85;;;;;;;10.80;77.18;100860.41;5039471;28;97139;-32
2023/03/18 02:12:40;;;;;;;4.05;2.75;;;;;;;10.79;80.64;100855.94;5038447;28;96839;-32
2023/03/18 02:15:12;;;;;;;5.20;2.95;;;;;;;10.80;78.73;100860.41;5037127;28;101187;-32
2023/03/18 02:17:42;;;;;;;3.75;2.50;;;;;;;10.78;78.38;100846.94;5037702;28;101889;-32
2023/03/18 02:20:33;;;;;;;4.88;2.55;;;;;;;10.82;78.14;100850.31;5038269;28;96613;-32
2023/03/18 02:23:08;;;;;;;6.65;2.67;;;;;;;10.81;78.23;100860.28;5039806;27;96709;-32
2023/03/18 02:25:58;;;;;;;3.60;2.00;;;;;;;10.80;78.04;100863.97;5037607;28;100849;-31
2023/03/18 02:28:27;;;;;;;4.35;2.58;;;;;;;10.81;78.57;100864.84;5037579;28;101146;-31
2023/03/18 02:30:57;;;;;;;3.00;2.00;;;;;;;10.83;78.56;100865.63;5037899;28;97344;-32
2023/03/18 02:33:27;;;;;;;5.57;2.72;;;;;;;10.84;78.59;100853.81;5038443;28;97229;-32
2023/03/18 02:35:59;;;;;;;3.65;2.75;;;;;;;10.86;78.90;100856.44;5037522;28;101677;-31
2023/03/18 02:38:24;;;;;;;3.40;2.10;;;;;;;10.86;80.33;100860.00;5037428;28;101495;-32
2023/03/18 02:40:50;;;;;;;4.35;2.50;;;;;;;10.84;80.23;100854.72;5038819;27;96478;-31
2023/03/18 02:43:15;;;;;;;3.85;2.67;;;;;;;10.90;78.97;100861.56;5037745;28;96935;-31
2023/03/18 02:45:47;;;;;;;3.17;2.10;;;;;;;10.94;78.51;100859.53;5038733;28;98132;-31
2023/03/18 02:48:19;;;;;;;3.33;2.15;;;;;;;10.92;78.25;100866.91;5037161;28;100917;-31
2023/03/18 02:50:46;;;;;;;4.88;2.80;;;;;;;10.92;78.95;100861.47;5037503;28;96581;-32
2023/03/18 02:53:12;;;;;;;7.78;2.88;;;;;;;10.91;78.60;100866.00;5037676;28;96581;-31
2023/03/18 02:55:38;;;;;;;3.38;2.53;;;;;;;10.90;78.28;100858.84;5037095;28;101189;-31
2023/03/18 02:58:03;;;;;;;7.47;2.63;;;;;;;10.90;79.12;100863.41;5038963;27;97525;-32
2023/03/18 03:00:28;;;;;;;2.97;2.05;;;;;;;10.92;80.58;100861.47;5038697;27;96616;-31
2023/03/18 03:02:54;;;;;;;3.53;2.35;;;;;;;10.91;79.61;100863.28;5038953;27;96767;-31
2023/03/18 03:05:19;;;;;;;5.78;2.35;;;;;;;10.95;79.45;100867.56;5036198;28;101668;-31
2023/03/18 03:07:45;;;;;;;5.90;2.70;;;;;;;10.94;79.25;100864.94;5038506;27;97891;-31
2023/03/18 03:10:11;;;;;;;5.07;2.97;;;;;;;10.96;78.99;100873.84;5038738;27;96754;-32
2023/03/18 03:12:36;;;;;;;3.88;2.45;;;;;;;10.94;79.47;100876.69;5037360;28;96881;-31
2023/03/18 03:15:05;;;;;;;6.10;2.35;;;;;;;10.91;78.92;100873.28;5038272;27;97967;-31
2023/03/18 03:17:32;;;;;;;4.10;2.63;;;;;;;10.87;80.98;100869.91;5036786;28;100724;-31
2023/03/18 03:19:58;;;;;;;5.22;2.85;;;;;;;10.87;79.35;100879.84;5038618;27;96699;-32
2023/03/18 03:22:24;;;;;;;3.85;2.53;;;;;;;10.84;81.56;100875.47;5039057;27;96804;-32
2023/03/18 03:24:49;;;;;;;4.40;2.60;;;;;;;10.84;81.58;100880.91;5036684;28;101054;-32
2023/03/18 03:27:15;;;;;;;4.88;2.38;;;;;;;10.82;81.08;100888.25;5037296;27;97761;-32
2023/03/18 03:29:42;;;;;;;4.93;2.83;;;;;;;10.84;80.22;100894.44;5036398;28;96619;-31
2023/03/18 03:32:08;;;;;;;6.00;2.45;;;;;;;10.81;82.43;100886.53;5037151;28;96813;-32
2023/03/18 03:34:33;;;;;;;4.25;2.35;;;;;;;10.81;83.21;100894.66;5037796;27;98291;-32
2023/03/18 03:36:59;;;;;;;4.45;2.22;;;;;;;10.81;84.75;100898.22;5037870;28;99167;-31
2023/03/18 03:39:24;;;;;;;3.90;2.38;;;;;;;10.79;83.05;100896.59;5038745;27;96886;-31
2023/03/18 03:41:50;;;;;;;4.60;2.55;;;;;;;10.78;82.56;100892.16;5038675;27;96809;-31
2023/03/18 03:44:16;;;;;;;2.95;2.03;;;;;;;10.81;82.15;100897.38;5037776;27;99547;-31
2023/03/18 03:46:41;;;;;;;3.88;2.35;;;;;;;10.80;82.26;100903.75;5036670;28;101507;-31
2023/03/18 03:49:06;;;;;;;3.75;2.25;;;;;;;10.80;82.14;100901.91;5036779;28;96758;-32
2023/03/18 03:51:32;;;;;;;3.45;1.83;;;;;;;10.75;83.42;100897.72;5038765;27;96820;-31
2023/03/18 03:53:57;;;;;;;3.92;2.40;;;;;;;10.74;85.01;100902.28;5037393;28;98151;-32
2023/03/18 03:56:23;;;;;;;3.08;2.00;;;;;;;10.74;85.17;100907.69;5037476;27;99398;-31
2023/03/18 03:58:48;;;;;;;4.07;2.22;;;;;;;10.76;85.07;100915.75;5038179;27;96584;-31
2023/03/18 04:01:14;;;;;;;3.22;2.05;;;;;;;10.72;85.27;100900.63;5038004;27;96583;-32
2023/03/18 04:03:39;;;;;;;3.40;2.00;;;;;;;10.71;85.25;100898.91;5037461;27;98023;-32
2023/03/18 04:06:05;;;;;;;3.78;2.35;;;;;;;10.74;84.88;100893.28;5037755;27;98870;-31
2023/03/18 04:08:31;;;;;;;4.18;2.22;;;;;;;10.70;85.09;100897.13;5036557;28;96668;-32
2023/03/18 04:10:56;;;;;;;3.83;1.95;;;;;;;10.68;85.09;100910.81;5038013;28;96826;-31
2023/03/18 04:13:22;;;;;;;4.15;2.10;;;;;;;10.62;85.43;100903.03;5035938;28;97900;-31
2023/03/18 04:15:48;;;;;;;4.72;2.60;;;;;;;10.60;86.96;100897.69;5035590;28;100866;-31
2023/03/18 04:18:15;;;;;;;3.55;2.05;;;;;;;10.53;87.73;100893.63;5035769;28;96647;-31
2023/03/18 04:20:41;;;;;;;3.00;2.03;;;;;;;10.55;87.79;100901.66;5037772;27;96672;-32
2023/03/18 04:23:06;;;;;;;3.15;1.85;;;;;;;10.55;87.57;100901.66;5035720;27;100757;-31
2023/03/18 04:25:32;;;;;;;4.25;2.28;;;;;;;10.57;85.97;100914.16;5037248;27;97860;-32
2023/03/18 04:27:58;;;;;;;3.15;1.90;;;;;;;10.56;86.01;100919.69;5036810;27;96867;-32
2023/03/18 04:30:24;;;;;;;4.07;2.38;;;;;;;10.56;86.70;100925.97;5037725;27;96807;-31
2023/03/18 04:32:50;;;;;;;3.85;1.92;;;;;;;10.56;86.68;100925.97;5035654;28;101015;-32
2023/03/18 04:35:16;;;;;;;2.83;2.15;;;;;;;10.56;87.09;100927.81;5035983;28;101253;-31
2023/03/18 04:37:43;;;;;;;2.95;2.10;;;;;;;10.54;87.99;100927.03;5037302;27;96622;-32
2023/03/18 04:40:10;;;;;;;5.78;2.40;;;;;;;10.55;88.07;100932.31;5036141;28;96726;-31
2023/03/18 04:42:36;;;;;;;3.72;2.35;;;;;;;10.57;86.68;100941.22;5035003;28;100981;-32
2023/03/18 04:45:04;;;;;;;6.60;2.35;;;;;;;10.56;87.07;100941.34;5037052;28;97894;-31
2023/03/18 04:47:31;;;;;;;3.45;2.10;;;;;;;10.57;86.79;100943.06;5035816;28;96724;-31
2023/03/18 04:49:57;;;;;;;2.67;1.88;;;;;;;10.55;88.13;100936.88;5037271;27;96775;-32
2023/03/18 04:52:23;;;;;;;4.57;2.58;;;;;;;10.56;86.67;100947.63;5036826;27;99236;-32
2023/03/18 04:54:49;;;;;;;4.43;2.33;;;;;;;10.55;87.08;100942.28;5035389;28;101135;-31
2023/03/18 04:57:15;;;;;;;4.57;2.08;;;;;;;10.58;86.22;100958.34;5035791;28;96489;-32
2023/03/18 04:59:41;;;;;;;3.97;2.35;;;;;;;10.59;86.08;100957.41;5035995;28;96851;-32
2023/03/18 05:02:07;;;;;;;3.15;2.25;;;;;;;10.58;86.49;100948.41;5036846;28;98001;-31
2023/03/18 05:04:32;;;;;;;2.95;1.85;;;;;;;10.60;86.37;100951.88;5035255;28;101016;-32
2023/03/18 05:06:58;;;;;;;4.57;2.58;;;;;;;10.58;87.47;100950.22;5036891;27;96379;-32
2023/03/18 05:09:24;;;;;;;4.13;2.65;;;;;;;10.58;87.28;100953.84;5037093;27;96953;-31
2023/03/18 05:11:49;;;;;;;2.83;2.10;;;;;;;10.55;87.30;100947.72;5036564;27;97921;-31
2023/03/18 05:14:14;;;;;;;2.15;1.67;;;;;;;10.56;86.99;100953.03;5037059;27;97283;-32
2023/03/18 05:16:40;;;;;;;4.90;2.70;;;;;;;10.57;86.61;100943.94;5037121;27;96587;-31
2023/03/18 05:19:07;;;;;;;4.05;2.30;;;;;;;10.58;87.17;100947.50;5037044;27;96786;-31
2023/03/18 05:21:32;;;;;;;2.83;1.80;;;;;;;10.57;86.52;100946.66;5036414;27;98914;-31
2023/03/18 05:23:58;;;;;;;3.40;2.10;;;;;;;10.58;86.43;100945.72;5037017;27;97754;-31
2023/03/18 05:26:23;;;;;;;4.35;1.98;;;;;;;10.61;86.44;100950.06;5036744;27;96865;-32
2023/03/18 05:28:49;;;;;;;3.25;2.00;;;;;;;10.62;85.58;100958.06;5040731;27;96651;-32
2023/03/18 05:31:14;;;;;;;3.28;1.67;;;;;;;10.60;85.81;100956.44;5039298;27;98137;-31
2023/03/18 05:33:41;;;;;;;3.60;2.10;;;;;;;10.60;85.79;100953.72;5039619;27;100908;-31
2023/03/18 05:36:08;;;;;;;3.00;2.03;;;;;;;10.58;85.82;100959.25;5040149;27;96612;-32
2023/03/18 05:38:33;;;;;;;3.53;2.42;;;;;;;10.61;85.91;100960.91;5038873;28;96925;-31
2023/03/18 05:40:58;;;;;;;3.22;1.92;;;;;;;10.59;85.41;100947.44;5039915;27;97459;-32
2023/03/18 05:43:25;;;;;;;4.82;2.42;;;;;;;10.59;85.35;100942.03;5039875;28;99374;-32
2023/03/18 05:45:50;;;;;;;4.07;2.25;;;;;;;10.65;85.21;100945.31;5040119;27;96614;-32
2023/03/18 05:48:16;;;;;;;2.90;1.67;;;;;;;10.65;85.34;100939.91;5040233;27;96839;-31
2023/03/18 05:50:42;;;;;;;3.92;2.13;;;;;;;10.58;85.20;100937.59;5039660;27;97427;-31
2023/03/18 05:53:09;;;;;;;2.58;1.85;;;;;;;10.61;85.50;100950.94;5038234;28;98883;-31
2023/03/18 05:55:35;;;;;;;4.03;2.22;;;;;;;10.58;85.41;100963.78;5038171;28;96585;-31
2023/03/18 05:58:01;;;;;;;3.35;2.20;;;;;;;10.52;86.21;100951.47;5039709;28;96844;-32
2023/03/18 06:00:28;;;;;;;2.63;1.80;;;;;;;10.49;86.84;100959.78;5037995;28;100987;-31
2023/03/18 06:02:55;;;;;;;2.83;2.15;;;;;;;10.48;86.23;100959.88;5038048;28;101395;-31
2023/03/18 06:05:22;;;;;;;2.55;1.88;;;;;;;10.46;86.34;100957.25;5038602;28;96580;-31
2023/03/18 06:07:47;;;;;;;3.28;2.28;;;;;;;10.46;86.81;100961.78;5038364;27;96826;-32
2023/03/18 06:10:13;;;;;;;2.22;1.45;;;;;;;10.42;86.38;100974.66;5039370;28;97699;-32
2023/03/18 06:12:40;;;;;;;2.97;2.08;;;;;;;10.39;87.02;100973.00;5039354;27;99525;-31
2023/03/18 06:15:07;;;;;;;3.03;2.00;;;;;;;10.37;87.57;100991.19;5038307;28;96683;-32
2023/03/18 06:17:32;;;;;;;4.00;2.33;;;;;;;10.33;87.86;100983.31;5039649;28;96448;-32
2023/03/18 06:19:58;;;;;;;3.30;2.10;;;;;;;10.33;88.23;100989.59;5038474;27;99617;-31
2023/03/18 06:22:24;;;;;;;4.07;1.85;;;;;;;10.26;88.68;100985.47;5039140;28;97839;-31
2023/03/18 06:24:50;;;;;;;3.17;2.20;;;;;;;10.25;89.77;100994.56;5039633;27;96539;-31
2023/03/18 06:27:15;;;;;;;2.97;1.85;;;;;;;10.23;91.53;100992.91;5038583;27;96845;-32
2023/03/18 06:29:40;;;;;;;4.10;2.22;;;;;;;10.24;91.40;100997.34;5038994;27;98620;-32
2023/03/18 06:32:07;;;;;;;3.40;2.15;;;;;;;10.28;90.06;101009.75;5038636;28;105371;-32
2023/03/18 06:34:33;;;;;;;3.03;2.08;;;;;;;10.26;93.01;101009.84;5038119;27;96555;-31
2023/03/18 06:36:59;;;;;;;3.90;2.05;;;;;;;10.26;93.44;101009.84;5038019;28;96808;-31
2023/03/18 06:39:24;;;;;;;3.72;2.10;;;;;;;10.27;93.46;101008.88;5038868;28;97433;-32
2023/03/18 06:41:51;;;;;;;3.28;2.05;;;;;;;10.31;91.89;101015.03;5038404;27;99014;-32
2023/03/18 06:44:16;;;;;;;3.72;2.30;;;;;;;10.34;89.82;101012.13;5038754;27;96507;-32
2023/03/18 06:46:42;;;;;;;3.40;2.08;;;;;;;10.41;91.04;101019.78;5039172;27;96842;-31
2023/03/18 06:49:07;;;;;;;3.65;2.22;;;;;;;10.39;92.11;101020.84;5038598;28;103025;-32
2023/03/18 06:51:33;;;;;;;3.97;1.75;;;;;;;10.46;91.12;101024.09;5038609;28;100807;-31
2023/03/18 06:53:59;;;;;;;3.42;2.13;;;;;;;10.47;92.46;101032.13;5039205;27;96554;-31
2023/03/18 06:56:24;;;;;;;4.40;2.55;;;;;;;10.52;91.15;101030.03;5038942;27;96791;-32
2023/03/18 06:58:50;;;;;;;3.20;1.92;;;;;;;10.62;90.04;101024.94;5038413;28;99417;-32
2023/03/18 07:01:16;;;;;;;2.88;2.20;;;;;;;10.66;92.04;101029.22;5038901;28;97983;-32
2023/03/18 07:03:42;;;;;;;3.50;2.10;;;;;;;10.79;90.83;101030.22;5039075;28;96614;-32
2023/03/18 07:06:09;;;;;;;4.18;2.53;;;;;;;10.88;90.86;101031.50;5037560;28;96905;-31
2023/03/18 07:08:35;;;;;;;3.72;2.50;;;;;;;10.95;90.92;101032.88;5036382;28;99661;-31
2023/03/18 07:11:00;;;;;;;3.22;1.98;;;;;;;11.08;89.68;101035.72;5038286;28;97817;-32
2023/03/18 07:13:25;;;;;;;2.95;2.13;;;;;;;11.24;89.06;101027.53;5039027;27;96547;-32
2023/03/18 07:15:55;;;;;;;5.57;2.70;;;;;;;11.39;88.16;101031.13;5038761;27;96805;-31
2023/03/18 07:18:20;;;;;;;3.63;2.35;;;;;;;11.58;86.69;101023.56;5038002;28;99387;-32
2023/03/18 07:20:46;;;;;;;3.60;2.45;;;;;;;11.78;86.45;101033.19;5038455;28;97864;-32
2023/03/18 07:23:11;;;;;;;3.70;2.30;;;;;;;11.94;85.53;101029.50;5038837;27;96590;-32
2023/03/18 07:25:36;;;;;;;3.25;2.47;;;;;;;12.09;84.55;101033.97;5038578;27;96586;-32
2023/03/18 07:28:03;;;;;;;3.40;2.17;;;;;;;12.17;84.46;101026.19;5037287;27;99297;-32
2023/03/18 07:30:29;;;;;;;3.90;2.25;;;;;;;12.27;84.43;101027.31;5036511;28;101087;-32
2023/03/18 07:32:55;;;;;;;3.30;2.05;;;;;;;12.42;83.73;101029.97;5037960;27;96653;-32
2023/03/18 07:35:21;;;;;;;4.25;2.60;;;;;;;12.57;83.20;101041.69;5038619;28;96837;-32
2023/03/18 07:37:47;;;;;;;4.45;2.55;;;;;;;12.60;83.11;101036.91;5037990;28;98038;-31
2023/03/18 07:40:12;;;;;;;3.35;2.25;;;;;;;12.62;83.45;101037.69;5037535;27;99307;-32
2023/03/18 07:42:38;;;;;;;4.28;2.58;;;;;;;12.62;82.81;101037.69;5036907;28;96671;-32
2023/03/18 07:45:05;;;;;;;4.20;2.55;;;;;;;12.66;82.59;101036.50;5038265;27;97020;-32
2023/03/18 07:47:30;;;;;;;5.13;2.25;;;;;;;12.61;82.71;101044.09;5036336;28;103308;-32
2023/03/18 07:49:56;;;;;;;4.35;2.63;;;;;;;12.81;81.72;101052.75;5036868;27;104481;-32
2023/03/18 07:52:22;;;;;;;3.60;2.13;;;;;;;12.92;81.64;101042.03;5038069;27;96474;-31
2023/03/18 07:54:47;;;;;;;3.95;2.17;;;;;;;13.06;81.40;101052.84;5036552;28;96948;-32
2023/03/18 07:57:13;;;;;;;3.47;2.33;;;;;;;13.10;81.20;101051.63;5037252;27;97404;-32
2023/03/18 07:59:38;;;;;;;6.03;2.72;;;;;;;13.16;80.58;101053.94;5037563;27;97302;-32
2023/03/18 08:02:06;;;;;;;3.75;2.60;;;;;;;13.22;80.57;101044.47;5038455;28;96559;-32
2023/03/18 08:04:34;;;;;;;5.05;2.80;;;;;;;13.26;80.01;101042.41;5038156;27;96721;-32
2023/03/18 08:07:00;;;;;;;3.47;2.05;;;;;;;13.32;80.01;101036.56;5036142;28;101184;-32
2023/03/18 08:09:26;;;;;;;5.93;2.50;;;;;;;13.40;79.42;101036.91;5035793;28;100608;-32
2023/03/18 08:11:52;;;;;;;5.35;2.65;;;;;;;13.70;79.09;101031.13;5036559;28;96619;-32
2023/03/18 08:14:18;;;;;;;8.93;3.80;;;;;;;13.68;78.03;101027.66;5038311;28;96772;-31
2023/03/18 08:16:43;;;;;;;5.30;2.45;;;;;;;13.76;77.95;101029.81;5037200;27;99410;-32
2023/03/18 08:19:09;;;;;;;4.10;2.28;;;;;;;13.80;77.74;101021.34;5037356;28;97863;-32
2023/03/18 08:21:34;;;;;;;4.50;2.78;;;;;;;13.86;77.47;101021.88;5037320;28;96728;-32
2023/03/18 08:24:00;;;;;;;5.50;3.05;;;;;;;13.84;77.33;101030.13;5037496;27;96926;-32
2023/03/18 08:26:25;;;;;;;3.33;2.25;;;;;;;13.87;77.18;101032.66;5036186;28;109378;-32
2023/03/18 08:28:50;;;;;;;3.95;2.53;;;;;;;13.87;76.90;101040.81;5037567;27;97269;-32
2023/03/18 08:31:16;;;;;;;5.32;2.63;;;;;;;13.89;77.07;101040.69;5037255;28;96544;-32
2023/03/18 08:33:41;;;;;;;4.47;2.95;;;;;;;14.05;76.96;101048.63;5037059;28;98337;-32
2023/03/18 08:36:07;;;;;;;5.30;2.63;;;;;;;14.20;76.05;101070.16;5036955;27;97916;-32
2023/03/18 08:38:33;;;;;;;4.93;2.75;;;;;;;14.09;76.66;101071.94;5037176;27;98609;-31
2023/03/18 08:40:58;;;;;;;4.95;3.20;;;;;;;13.72;76.94;101083.63;5036902;28;96574;-32
2023/03/18 08:43:24;;;;;;;5.47;3.30;;;;;;;13.43;77.72;101082.09;5036167;27;96859;-32
2023/03/18 08:45:53;;;;;;;5.57;3.15;;;;;;;13.35;78.54;101088.94;5035137;27;99320;-32
2023/03/18 08:48:19;;;;;;;6.20;2.80;;;;;;;13.25;78.81;101078.75;5035024;28;100595;-32
2023/03/18 08:50:45;;;;;;;4.68;2.90;;;;;;;13.36;79.24;101082.50;5035787;28;96670;-32
2023/03/18 08:53:12;;;;;;;4.03;2.80;;;;;;;13.49;78.48;101092.53;5037000;27;96811;-32
2023/03/18 08:55:38;;;;;;;4.35;3.05;;;;;;;13.65;77.85;101103.22;5035297;28;99407;-31
2023/03/18 08:58:06;;;;;;;4.85;2.72;;;;;;;13.50;78.12;101110.63;5034833;28;100955;-32
2023/03/18 09:00:37;;;;;;;4.25;2.78;;;;;;;13.50;78.11;101114.19;5036657;27;96759;-32
2023/03/18 09:03:04;;;;;;;4.97;3.07;;;;;;;13.46;78.11;101109.94;5039803;28;96797;-32
2023/03/18 09:05:29;;;;;;;6.13;3.10;;;;;;;13.48;78.25;101108.00;5038716;28;100632;-32
2023/03/18 09:07:57;;;;;;;5.53;2.72;;;;;;;13.69;77.88;101107.47;5040126;27;97711;-32
2023/03/18 09:10:22;;;;;;;5.30;3.05;;;;;;;13.93;77.42;101104.84;5037630;27;96714;-31
2023/03/18 09:12:48;;;;;;;3.90;2.28;;;;;;;14.11;76.13;101099.91;5040494;27;96899;-32
2023/03/18 09:15:15;;;;;;;3.78;2.80;;;;;;;13.98;76.00;101099.94;5040225;28;97925;-32
2023/03/18 09:17:41;;;;;;;5.82;3.05;;;;;;;14.02;76.55;101096.91;5038759;28;100794;-32
2023/03/18 09:20:09;;;;;;;4.80;3.47;;;;;;;14.28;75.79;101093.25;5040051;28;96665;-32
2023/03/18 09:22:35;;;;;;;4.13;2.47;;;;;;;14.62;75.09;101087.06;5039163;28;96790;-32
2023/03/18 09:25:00;;;;;;;4.93;2.83;;;;;;;14.76;73.70;101088.78;5039754;27;99384;-32
2023/03/18 09:27:26;;;;;;;7.07;3.75;;;;;;;14.54;74.08;101094.06;5039348;27;99423;-31
2023/03/18 09:29:52;;;;;;;4.80;3.08;;;;;;;14.42;74.75;101084.94;5038200;28;96846;-32
2023/03/18 09:32:17;;;;;;;5.00;3.10;;;;;;;14.53;75.17;101095.91;5040380;28;96772;-32
2023/03/18 09:34:46;;;;;;;4.90;2.67;;;;;;;14.46;74.31;101105.53;5037691;27;101024;-32
2023/03/18 09:37:12;;;;;;;3.55;2.53;;;;;;;14.21;74.82;101099.16;5037972;27;99843;-31
2023/03/18 09:39:38;;;;;;;7.18;2.97;;;;;;;14.07;75.52;101104.75;5040212;27;96540;-32
2023/03/18 09:42:25;;;;;;;5.40;2.80;;;;;;;14.19;75.74;101092.94;5038471;28;97040;-31
2023/03/18 09:45:05;;;;;;;3.95;2.60;;;;;;;14.24;75.32;101084.44;5039938;27;98155;-32
2023/03/18 09:47:36;;;;;;;5.55;2.50;;;;;;;14.21;75.44;101087.41;5039445;27;100620;-31
2023/03/18 09:50:01;;;;;;;4.83;2.70;;;;;;;14.12;75.60;101096.22;5037306;27;96751;-31
2023/03/18 09:52:43;;;;;;;6.10;3.10;;;;;;;13.98;75.92;101089.91;5036900;27;97028;-32
2023/03/18 09:55:42;;;;;;;3.88;2.63;;;;;;;13.87;76.19;101099.84;5035712;28;100897;-31
2023/03/18 09:58:19;;;;;;;4.35;3.03;;;;;;;13.79;76.70;101103.13;5035312;28;101457;-31
2023/03/18 10:00:50;;;;;;;4.55;2.72;;;;;;;13.60;76.87;101103.53;5036924;27;96527;-32
2023/03/18 10:03:41;;;;;;;4.68;3.05;;;;;;;13.49;77.38;101103.41;5035921;28;96836;-32
2023/03/18 10:06:16;;;;;;;5.50;3.15;;;;;;;13.48;77.52;101104.41;5034940;27;101220;-32
2023/03/18 10:08:54;;;;;;;4.60;3.13;;;;;;;13.40;78.10;101104.94;5036506;27;97838;-33
2023/03/18 10:11:47;;;;;;;3.65;2.33;;;;;;;13.35;78.64;101099.81;5035373;28;96710;-31
2023/03/18 10:14:32;;;;;;;5.18;2.92;;;;;;;13.37;78.18;101102.41;5026876;28;96691;-32
2023/03/18 10:17:29;;;;;;;6.95;2.83;;;;;;;13.38;78.13;101109.63;5025224;28;100888;-32
2023/03/18 10:19:57;;;;;;;6.85;2.78;;;;;;;13.37;78.29;101110.56;5037032;28;97957;-31
2023/03/18 10:22:50;;;;;;;4.03;2.50;;;;;;;13.27;78.44;101114.88;5034825;28;96632;-32
2023/03/18 10:25:19;;;;;;;6.50;2.70;;;;;;;13.30;78.49;101111.97;5023345;28;96757;-31
2023/03/18 10:27:58;;;;;;;6.65;3.08;;;;;;;13.32;78.28;101119.09;5025639;27;98007;-32
2023/03/18 10:30:41;;;;;;;4.43;2.60;;;;;;;13.30;78.75;101112.88;5014840;28;100842;-31
2023/03/18 10:33:12;;;;;;;5.20;3.15;;;;;;;13.25;78.96;101122.28;5016390;28;96718;-32
2023/03/18 10:36:21;;;;;;;5.22;3.30;;;;;;;13.20;78.75;101121.72;5015273;28;96651;-31
2023/03/18 10:38:49;;;;;;;3.63;2.40;;;;;;;13.20;78.71;101119.00;5016047;28;99492;-32
2023/03/18 10:41:35;;;;;;;5.13;3.40;;;;;;;13.28;78.67;101108.50;5016040;28;97809;-33
2023/03/18 10:44:13;;;;;;;3.75;2.67;;;;;;;13.38;78.32;101125.94;5015176;28;96714;-32
2023/03/18 10:46:41;;;;;;;5.13;2.60;;;;;;;13.38;78.26;101117.78;5015544;28;96801;-32
2023/03/18 10:49:17;;;;;;;5.65;2.53;;;;;;;13.26;78.38;101121.31;5016033;28;99676;-31
2023/03/18 10:51:53;;;;;;;3.88;2.58;;;;;;;13.25;78.77;101125.00;5016115;28;97914;-31
2023/03/18 10:54:42;;;;;;;3.75;2.65;;;;;;;13.24;78.72;101131.44;5014452;28;96597;-32
2023/03/18 10:57:18;;;;;;;9.57;3.67;;;;;;;13.20;79.10;101122.59;5025141;28;96805;-31
2023/03/18 10:59:44;;;;;;;5.28;3.10;;;;;;;13.16;79.06;101121.06;5035919;27;99404;-31
2023/03/18 11:02:29;;;;;;;5.50;2.97;;;;;;;13.13;79.75;101122.16;5034632;28;100915;-32
2023/03/18 11:05:00;;;;;;;4.15;2.78;;;;;;;13.10;80.34;101119.63;5036339;27;96659;-32
2023/03/18 11:07:27;;;;;;;5.15;3.05;;;;;;;13.09;81.01;101122.47;5036592;27;96555;-32
2023/03/18 11:09:53;;;;;;;4.75;3.25;;;;;;;13.15;80.57;101117.47;5034421;28;100756;-31
2023/03/18 11:12:29;;;;;;;5.30;2.97;;;;;;;13.24;80.95;101123.25;5034806;28;100872;-32
2023/03/18 11:14:55;;;;;;;5.00;3.45;;;;;;;13.23;81.20;101111.53;5033350;27;97321;-34
2023/03/18 11:17:29;;;;;;;4.95;2.85;;;;;;;13.31;81.30;101121.91;5033637;27;96950;-32
2023/03/18 11:20:23;;;;;;;6.18;3.20;;;;;;;13.36;80.39;101104.28;5031487;28;101038;-32
2023/03/18 11:22:51;;;;;;;4.25;2.67;;;;;;;13.43;79.88;101102.00;5033246;27;99168;-33
2023/03/18 11:25:22;;;;;;;8.05;3.25;;;;;;;13.48;79.65;101112.56;5033254;27;97544;-32
2023/03/18 11:27:56;;;;;;;7.47;3.05;;;;;;;13.54;79.37;101106.72;5032242;27;98127;-33
2023/03/18 11:30:25;;;;;;;5.88;3.22;;;;;;;13.56;79.01;101100.19;5033421;28;100569;-32